Hidden Valley, California
Current Conditions -  °F | °C
As of 7:55 AM on Thursday 27 Nov 2014 (Local Time) from KCMA Reporting Station
Clear Clear  
Wind Chill: 67°   Ceiling: Unl
Heat Index: 67°   Visibility: 10mi
Dew Point: 27°   Wind: 3mph
Humidity: 22%   Direction: 30°NNE
Pressure: 30.1"   Gusts: NA
Location:  34.1434°N, 118.876°W
Report Text: KCMA 271555Z 03003KT 10SM CLR 19/M03 A3010 RMK AO2 SLP200 T01941028
Loading
Personal Weather Stations






























Interactive Weather Map New forecast layout! Learn more

10-Day Weather Forecast

Advertisements
Track Severe Weather on mobile